• Join FlightAware (Why Join?)
  • Login
  • US Flag 
12:35AM EDT


 

Airport Tracker/Info


-or-


 

Live Flight TrackerFlight Track Log ✈ CTL17 ✈ 26-Jun-2013 ✈ KBKL - KPTK

Flight Track Log - Related Links

Times and Time Zones

All times are in EDT time to prevent confusion due to time zone crossing. See the CTL17 flight status page for this flight to view local times or setup timezone preferences in your user account.

Time Position Orientation Groundspeed Altitude Reporting Facility
EDT Latitude Longitude Course Direction KTS MPH feet Rate Location/Type
06:58PM 41.7633 -82.3231 291° West 158 182 6,000  Level Cleveland Center
06:59PM 41.7811 -82.3847 291° West 155 178 6,200  Climbing Cleveland Center
07:00PM 41.7928 -82.4381 286° West 156 180 6,000 -120 Descending Cleveland Center
07:01PM 41.8064 -82.4914 289° West 158 182 6,000  Level Cleveland Center
07:02PM 41.8242 -82.5531 291° West 158 182 6,000  Level Cleveland Center
07:03PM 41.8358 -82.6036 287° West 155 178 6,000  Level Cleveland Center
07:04PM 41.8622 -82.6464 310° West 161 185 6,000  Level Cleveland Center
07:05PM 41.9056 -82.6728 336° Northwest 164 189 6,100  Climbing Cleveland Center
07:06PM 41.9550 -82.6969 340° North 171 197 6,000  Descending Cleveland Center
07:07PM 41.9983 -82.7178 340° North 167 192 6,100  Climbing Cleveland Center
07:08PM 42.0439 -82.7472 334° Northwest 168 193 6,000 -240 Descending Cleveland Center
07:09PM 42.0869 -82.7739 335° Northwest 172 198 5,700 -540 Descending Cleveland Center
07:10PM 42.1344 -82.7981 339° North 201 231 5,000 -420 Descending Cleveland Center
07:11PM 42.1797 -82.8247 336° Northwest 182 209 5,000  Level Cleveland Center
07:12PM 42.2211 -82.8486 337° Northwest 168 193 5,000 -120 Level Cleveland Center
07:13PM 42.2703 -82.8869 330° Northwest 173 199 4,800 -240 Descending Cleveland Center
07:15PM 42.3211 -82.9470 319° Northwest  Level FlightAware Approximate
07:16PM 42.3736 -83.0283 312° West 165 190 4,000  Level Cleveland Center
07:17PM 42.4061 -83.0719 315° West 165 190 4,100  Climbing Cleveland Center
07:18PM 42.4383 -83.1208 312° West 163 188 4,000 -60 Descending Cleveland Center
07:19PM 42.4750 -83.1703 315° West 169 194 4,000 -180 Level Cleveland Center
07:20PM 42.5092 -83.2194 313° West 188 216 3,700 -540 Descending Cleveland Center
07:21PM 42.5475 -83.2692 316° Northwest 193 222 3,000 -480 Descending Cleveland Center
07:22PM 42.5607 -83.2743 312° West  Level FlightAware Approximate
07:22PM 42.5861 -83.3158 318° Northwest 182 209 2,800  Level Cleveland Center
07:23PM 42.6292 -83.3458 333° Northwest 168 193 2,400 -600 Descending Cleveland Center
07:24PM 42.6619 -83.3728 329° Northwest 138 159 1,700 -720 Descending Cleveland Center